Terminal Aerodrome Forecast
Issued by NWS Raleigh/Durham, NC

Home | Current Version | Previous Version | Text Only | Print | Product List | Glossary On
Versions: 1 2 3 4 5 6 7 8 9 10 11 12 13 14 15 16 17 18 19
000
FTUS42 KRAH 271745
TAFRDU
TAF
KRDU 271745Z 2718/2818 19004KT P6SM BKN050 OVC070
     FM280000 20003KT P6SM SCT050 OVC100
     FM280800 19002KT 4SM BR SCT009 BKN025
     FM281400 16004KT P6SM VCSH BKN035=

USA.gov is the U.S. government's official web portal to all federal, state and local government web resources and services.